Time;durP1;ratioP1;P1;durP2;ratioP2;P2;SDS_P1;SDS_P2;PMS_P1;PMS_P2;Temp;Humidity;BMP_temperature;BMP_pressure;BME280_temperature;BME280_humidity;BME280_pressure;Samples;Min_cycle;Max_cycle;Signal;HPM_P1;HPM_P2
2022/02/04 00:03:46;;;;;;;10.02;6.60;;;;;;;;;;4975044;28;20086;-68
2022/02/04 00:23:44;;;;;;;12.18;8.65;;;;;;;;;;4971190;28;20077;-67
2022/02/04 00:26:17;;;;;;;11.93;8.23;;;;;;;;;;4974571;28;20031;-69
2022/02/04 00:31:42;;;;;;;7.65;6.50;;;;;;;;;;4974324;28;20412;-67
2022/02/04 00:34:13;;;;;;;9.95;7.70;;;;;;;;;;4973215;28;20022;-66
2022/02/04 00:36:46;;;;;;;10.18;7.22;;;;;;;;;;4972779;28;20401;-68
2022/02/04 00:39:22;;;;;;;15.10;9.88;;;;;;;;;;4974389;28;20412;-67
2022/02/04 00:41:49;;;;;;;9.98;7.25;;;;;;;;;;4974121;28;20030;-67
2022/02/04 00:44:23;;;;;;;11.43;7.78;;;;;;;;;;4973219;28;20031;-68
2022/02/04 00:54:22;;;;;;;10.13;7.70;;;;;;;;;;4973437;28;20023;-68
2022/02/04 01:26:53;;;;;;;14.73;10.00;;;;;;;;;;5052674;28;20031;-72
2022/02/04 01:29:20;;;;;;;16.20;11.35;;;;;;;;;;5052093;28;20082;-72
2022/02/04 01:31:47;;;;;;;16.67;11.30;;;;;;;;;;5034061;28;20041;-72
2022/02/04 01:34:13;;;;;;;19.90;12.98;;;;;;;;;;5031541;28;20040;-73
2022/02/04 01:36:39;;;;;;;23.05;14.27;;;;;;;;;;5030902;28;20029;-72
2022/02/04 01:39:05;;;;;;;19.95;13.95;;;;;;;;;;5032670;28;20021;-71
2022/02/04 01:41:31;;;;;;;21.45;14.00;;;;;;;;;;5032238;28;20030;-72
2022/02/04 01:43:57;;;;;;;21.98;14.80;;;;;;;;;;5031414;28;20052;-72
2022/02/04 01:46:23;;;;;;;24.13;15.43;;;;;;;;;;5032126;28;20061;-72
2022/02/04 01:48:49;;;;;;;25.10;16.35;;;;;;;;;;5030750;28;20030;-72
2022/02/04 01:51:16;;;;;;;29.58;16.92;;;;;;;;;;5031948;28;20404;-73
2022/02/04 01:53:42;;;;;;;28.63;17.98;;;;;;;;;;5031303;28;20068;-73
2022/02/04 01:56:09;;;;;;;30.05;18.38;;;;;;;;;;5031828;28;20032;-73
2022/02/04 01:58:36;;;;;;;28.63;18.77;;;;;;;;;;5030592;28;20120;-73
2022/02/04 02:01:03;;;;;;;31.40;19.13;;;;;;;;;;5031889;28;20079;-73
2022/02/04 02:03:29;;;;;;;31.63;18.83;;;;;;;;;;5031038;28;20029;-72
2022/02/04 02:05:59;;;;;;;34.75;19.65;;;;;;;;;;5030723;28;20075;-72
2022/02/04 02:08:25;;;;;;;34.00;20.48;;;;;;;;;;5031930;28;20029;-72
2022/02/04 02:10:52;;;;;;;35.42;18.60;;;;;;;;;;5030386;28;20037;-73
2022/02/04 02:52:45;;;;;;;26.95;15.90;;;;;;;;;;5011772;28;20446;-72
2022/02/04 02:55:36;;;;;;;26.88;14.73;;;;;;;;;;5011789;28;20030;-72
2022/02/04 02:58:08;;;;;;;26.27;14.52;;;;;;;;;;5012755;28;20025;-72
2022/02/04 03:00:49;;;;;;;30.48;16.70;;;;;;;;;;5030656;28;20034;-71
2022/02/04 03:03:17;;;;;;;23.73;12.95;;;;;;;;;;5014738;28;20106;-72
2022/02/04 03:05:43;;;;;;;22.92;13.13;;;;;;;;;;5015308;28;20032;-72
2022/02/04 03:08:09;;;;;;;23.33;14.20;;;;;;;;;;5015200;28;20025;-72
2022/02/04 03:10:35;;;;;;;20.35;12.48;;;;;;;;;;5015273;28;20490;-72
2022/02/04 03:13:01;;;;;;;20.23;12.00;;;;;;;;;;5014482;28;20052;-72
2022/02/04 03:15:27;;;;;;;20.00;11.85;;;;;;;;;;5030428;28;20054;-72
2022/02/04 03:18:00;;;;;;;18.15;12.55;;;;;;;;;;5015035;28;20061;-72
2022/02/04 03:20:27;;;;;;;20.65;12.90;;;;;;;;;;5029939;28;20403;-72
2022/02/04 03:22:55;;;;;;;20.73;12.23;;;;;;;;;;5014428;28;20581;-72
2022/02/04 03:25:23;;;;;;;21.45;12.07;;;;;;;;;;5014777;28;20018;-71
2022/02/04 03:27:53;;;;;;;20.65;13.77;;;;;;;;;;5015083;28;20083;-72
2022/02/04 03:30:26;;;;;;;17.90;10.95;;;;;;;;;;5014894;28;20053;-71
2022/02/04 03:32:57;;;;;;;19.33;12.60;;;;;;;;;;5029759;28;20022;-72
2022/02/04 03:35:24;;;;;;;22.75;12.93;;;;;;;;;;5014753;28;20029;-72
2022/02/04 03:37:53;;;;;;;17.63;12.07;;;;;;;;;;5015052;28;20034;-72
2022/02/04 03:40:19;;;;;;;19.25;11.93;;;;;;;;;;5014887;28;20053;-72
2022/02/04 03:42:45;;;;;;;17.33;11.60;;;;;;;;;;5014152;28;20119;-71
2022/02/04 03:45:11;;;;;;;17.52;11.80;;;;;;;;;;5014478;28;20026;-72
2022/02/04 03:47:37;;;;;;;21.17;11.55;;;;;;;;;;5015019;28;20026;-73
2022/02/04 03:50:04;;;;;;;21.02;12.63;;;;;;;;;;5014314;28;20535;-72
2022/02/04 03:52:30;;;;;;;19.63;11.98;;;;;;;;;;5014251;28;20116;-73
2022/02/04 03:54:56;;;;;;;23.40;13.88;;;;;;;;;;5013561;28;20026;-72
2022/02/04 03:57:22;;;;;;;20.35;11.85;;;;;;;;;;5029543;28;20029;-72
2022/02/04 03:59:47;;;;;;;17.33;10.90;;;;;;;;;;5014088;28;20022;-73
2022/02/04 04:02:14;;;;;;;15.25;10.20;;;;;;;;;;5016544;28;20025;-72
2022/02/04 04:04:40;;;;;;;20.75;12.60;;;;;;;;;;5031930;28;20087;-72
2022/02/04 04:07:06;;;;;;;16.48;10.65;;;;;;;;;;5033751;28;20048;-72
2022/02/04 04:09:35;;;;;;;23.88;14.25;;;;;;;;;;5032913;28;20451;-73
2022/02/04 04:12:01;;;;;;;16.40;10.98;;;;;;;;;;5033528;28;20032;-72
2022/02/04 04:14:27;;;;;;;17.75;11.15;;;;;;;;;;5032859;28;20388;-72
2022/02/04 04:16:53;;;;;;;15.77;10.18;;;;;;;;;;5033660;28;20033;-72
2022/02/04 04:19:19;;;;;;;16.17;10.77;;;;;;;;;;5033657;28;20146;-73
2022/02/04 04:21:46;;;;;;;16.58;10.55;;;;;;;;;;5033338;28;20499;-72
2022/02/04 04:24:12;;;;;;;19.60;11.32;;;;;;;;;;5032855;28;20026;-73
2022/02/04 04:26:40;;;;;;;15.65;9.82;;;;;;;;;;5033614;28;20121;-72
2022/02/04 04:29:06;;;;;;;18.48;11.45;;;;;;;;;;5033479;28;20104;-72
2022/02/04 04:31:32;;;;;;;16.02;9.60;;;;;;;;;;5032035;28;20120;-73
2022/02/04 04:33:58;;;;;;;15.57;9.35;;;;;;;;;;5032525;28;20483;-72
2022/02/04 04:36:24;;;;;;;16.25;10.30;;;;;;;;;;5033340;28;20025;-73
2022/02/04 04:39:06;;;;;;;16.63;9.70;;;;;;;;;;5033336;28;20022;-72
2022/02/04 04:44:35;;;;;;;14.73;9.32;;;;;;;;;;5032606;28;20029;-72
2022/02/04 05:28:14;;;;;;;13.63;8.73;;;;;;;;;;5032042;28;20099;-72
2022/02/04 05:30:40;;;;;;;13.77;8.55;;;;;;;;;;5031957;28;20388;-73
2022/02/04 05:33:06;;;;;;;13.98;8.88;;;;;;;;;;5030010;28;20036;-71
2022/02/04 05:35:32;;;;;;;12.82;7.55;;;;;;;;;;5032093;28;20025;-72
2022/02/04 05:37:58;;;;;;;11.13;7.13;;;;;;;;;;5031342;28;20026;-72
2022/02/04 05:40:29;;;;;;;13.10;8.45;;;;;;;;;;5031835;28;20075;-72
2022/02/04 05:43:02;;;;;;;10.05;6.28;;;;;;;;;;5031379;28;20044;-72
2022/02/04 05:45:32;;;;;;;12.43;7.78;;;;;;;;;;5031896;28;20104;-71
2022/02/04 05:48:05;;;;;;;14.93;8.65;;;;;;;;;;5032295;28;20013;-72
2022/02/04 05:53:16;;;;;;;11.25;7.45;;;;;;;;;;5031172;28;20029;-72
2022/02/04 05:58:31;;;;;;;13.70;8.63;;;;;;;;;;5032015;28;20388;-71
2022/02/04 06:01:15;;;;;;;14.77;9.00;;;;;;;;;;5032115;28;20506;-72
2022/02/04 06:03:57;;;;;;;16.88;9.68;;;;;;;;;;5028368;28;20030;-71
2022/02/04 06:12:53;;;;;;;11.75;7.35;;;;;;;;;;5031867;28;20059;-73
2022/02/04 06:15:14;;;;;;;;;;;;;;;;;;;;;
2022/02/04 06:22:53;;;;;;;10.98;5.70;;;;;;;;;;5030840;28;20032;-72
2022/02/04 06:25:19;;;;;;;6.93;4.68;;;;;;;;;;5031244;28;20112;-70
2022/02/04 06:27:45;;;;;;;11.27;6.07;;;;;;;;;;5031486;28;20442;-72
2022/02/04 06:30:11;;;;;;;8.27;5.47;;;;;;;;;;5031284;28;20104;-71
2022/02/04 06:32:38;;;;;;;6.60;4.30;;;;;;;;;;5031536;28;20021;-72
2022/02/04 06:35:07;;;;;;;6.88;4.57;;;;;;;;;;5028900;28;20026;-72
2022/02/04 06:37:33;;;;;;;6.38;4.45;;;;;;;;;;5035088;28;20028;-72
2022/02/04 06:40:00;;;;;;;6.60;4.38;;;;;;;;;;5034780;28;20064;-72
2022/02/04 06:42:26;;;;;;;6.45;4.53;;;;;;;;;;5033557;28;20037;-73
2022/02/04 06:44:52;;;;;;;7.05;4.72;;;;;;;;;;5033081;28;20443;-73
2022/02/04 06:47:18;;;;;;;6.35;4.38;;;;;;;;;;5035198;28;20060;-73
2022/02/04 06:49:45;;;;;;;7.32;4.45;;;;;;;;;;5034256;28;20104;-73
2022/02/04 06:52:11;;;;;;;5.72;4.35;;;;;;;;;;5032383;28;20041;-73
2022/02/04 06:54:37;;;;;;;8.05;4.60;;;;;;;;;;5033170;28;20091;-72
2022/02/04 06:57:04;;;;;;;5.68;4.47;;;;;;;;;;5033313;28;20234;-72
2022/02/04 06:59:30;;;;;;;6.95;4.80;;;;;;;;;;5033894;28;20037;-72
2022/02/04 07:01:55;;;;;;;8.48;5.28;;;;;;;;;;5034811;28;20494;-70
2022/02/04 07:04:22;;;;;;;8.38;5.00;;;;;;;;;;5034169;28;20025;-71
2022/02/04 07:06:57;;;;;;;7.13;4.60;;;;;;;;;;5033843;28;20209;-72
2022/02/04 07:12:18;;;;;;;6.50;4.63;;;;;;;;;;5034100;28;20542;-72
2022/02/04 07:20:07;;;;;;;8.05;5.10;;;;;;;;;;5059652;23;20044;-68
2022/02/04 07:22:38;;;;;;;7.28;5.05;;;;;;;;;;5030258;28;20046;-66
2022/02/04 07:25:05;;;;;;;12.40;5.10;;;;;;;;;;5033891;28;20025;-69
2022/02/04 07:27:32;;;;;;;5.80;4.18;;;;;;;;;;5034263;28;20464;-69
2022/02/04 07:29:58;;;;;;;7.60;4.65;;;;;;;;;;5034105;28;20026;-69
2022/02/04 07:42:51;;;;;;;5.55;4.05;;;;;;;;;;5033590;28;20052;-70
2022/02/04 07:45:17;;;;;;;9.50;5.57;;;;;;;;;;5033452;28;20471;-69
2022/02/04 07:47:43;;;;;;;14.15;7.95;;;;;;;;;;5033884;28;20057;-74
2022/02/04 07:50:09;;;;;;;27.50;13.55;;;;;;;;;;5033687;28;20494;-71
2022/02/04 07:52:36;;;;;;;13.85;6.28;;;;;;;;;;5033639;28;20476;-71
2022/02/04 07:55:04;;;;;;;11.13;6.60;;;;;;;;;;5033230;28;20025;-70
2022/02/04 07:57:30;;;;;;;9.90;5.88;;;;;;;;;;5033550;28;20029;-74
2022/02/04 08:00:02;;;;;;;10.40;6.63;;;;;;;;;;5033652;28;20502;-71
2022/02/04 08:02:28;;;;;;;13.73;6.28;;;;;;;;;;5033749;28;20084;-73
2022/02/04 08:04:59;;;;;;;11.27;7.15;;;;;;;;;;5032963;28;20025;-74
2022/02/04 08:07:30;;;;;;;22.63;10.38;;;;;;;;;;5032586;28;20026;-73
2022/02/04 08:10:12;;;;;;;17.73;8.52;;;;;;;;;;5033557;28;20410;-74
2022/02/04 08:13:02;;;;;;;8.13;4.90;;;;;;;;;;5031977;28;20029;-73
2022/02/04 08:16:14;;;;;;;7.38;4.68;;;;;;;;;;5033366;28;20029;-73
2022/02/04 08:24:09;;;;;;;7.78;5.18;;;;;;;;;;5033195;28;20033;-74
2022/02/04 08:29:54;;;;;;;28.05;12.77;;;;;;;;;;5033195;28;20040;-74
2022/02/04 08:56:20;;;;;;;31.98;16.50;;;;;;;;;;5010181;28;20153;-72
2022/02/04 08:58:55;;;;;;;34.22;17.60;;;;;;;;;;5028920;28;20395;-69
2022/02/04 09:01:27;;;;;;;25.75;13.35;;;;;;;;;;5032655;28;20079;-72
2022/02/04 09:04:05;;;;;;;18.67;10.52;;;;;;;;;;5032100;28;20026;-73
2022/02/04 09:06:38;;;;;;;8.60;4.57;;;;;;;;;;5030838;28;20060;-71
2022/02/04 09:09:06;;;;;;;9.43;5.10;;;;;;;;;;5032609;28;20045;-74
2022/02/04 09:11:42;;;;;;;10.45;5.85;;;;;;;;;;5031226;28;20075;-74
2022/02/04 09:19:45;;;;;;;9.70;4.65;;;;;;;;;;5012725;28;20886;-71
2022/02/04 09:24:42;;;;;;;6.40;4.35;;;;;;;;;;5011676;28;20030;-70
2022/02/04 09:27:09;;;;;;;27.52;12.98;;;;;;;;;;5012059;28;20498;-68
2022/02/04 09:29:35;;;;;;;19.15;10.00;;;;;;;;;;5011943;28;20503;-68
2022/02/04 09:32:01;;;;;;;9.68;5.53;;;;;;;;;;5012254;28;20026;-73
2022/02/04 09:34:27;;;;;;;28.92;14.18;;;;;;;;;;5009829;28;20454;-73
2022/02/04 09:36:53;;;;;;;4.72;3.40;;;;;;;;;;5012178;28;20022;-72
2022/02/04 09:39:19;;;;;;;6.38;4.95;;;;;;;;;;5012120;28;20476;-72
2022/02/04 09:41:45;;;;;;;14.32;8.52;;;;;;;;;;5010752;28;20496;-72
2022/02/04 09:44:12;;;;;;;23.75;12.85;;;;;;;;;;5010980;28;20029;-71
2022/02/04 09:46:38;;;;;;;6.53;4.30;;;;;;;;;;5012015;28;20022;-71
2022/02/04 09:49:08;;;;;;;4.03;3.10;;;;;;;;;;5012048;28;20034;-73
2022/02/04 10:08:55;;;;;;;10.80;6.38;;;;;;;;;;5009202;28;20396;-72
2022/02/04 10:19:49;;;;;;;22.52;12.05;;;;;;;;;;5011503;28;20030;-71
2022/02/04 10:22:34;;;;;;;14.43;5.30;;;;;;;;;;5011776;28;20056;-73
2022/02/04 10:25:12;;;;;;;8.48;5.22;;;;;;;;;;5011297;28;20029;-72
2022/02/04 10:27:40;;;;;;;15.57;8.90;;;;;;;;;;5011798;28;20018;-71
2022/02/04 10:30:10;;;;;;;31.25;15.45;;;;;;;;;;5011291;28;20030;-72
2022/02/04 10:32:52;;;;;;;6.30;3.08;;;;;;;;;;5011496;28;20026;-72
2022/02/04 10:35:22;;;;;;;24.38;13.05;;;;;;;;;;5011336;28;20057;-72
2022/02/04 10:46:24;;;;;;;6.57;4.10;;;;;;;;;;5011498;28;20109;-71
2022/02/04 10:51:38;;;;;;;12.73;6.10;;;;;;;;;;5011565;28;20034;-73
2022/02/04 10:59:38;;;;;;;11.90;5.65;;;;;;;;;;5011455;28;20295;-68
2022/02/04 11:02:18;;;;;;;9.73;5.18;;;;;;;;;;5011272;28;20056;-68
2022/02/04 11:07:32;;;;;;;12.30;6.93;;;;;;;;;;5011468;28;20068;-68
2022/02/04 11:52:25;;;;;;;2.70;1.77;;;;;;;;;;5013376;28;20041;-69
2022/02/04 11:54:54;;;;;;;18.55;9.30;;;;;;;;;;5027351;28;20034;-69
2022/02/04 11:57:21;;;;;;;7.53;2.90;;;;;;;;;;5028436;28;20033;-69
2022/02/04 12:00:00;;;;;;;9.65;5.43;;;;;;;;;;5013145;28;20109;-70
2022/02/04 12:05:05;;;;;;;24.42;13.00;;;;;;;;;;5012770;28;20506;-67
2022/02/04 12:07:34;;;;;;;12.35;6.65;;;;;;;;;;5012776;28;20026;-68
2022/02/04 12:10:04;;;;;;;10.88;6.72;;;;;;;;;;5013312;28;20045;-67
2022/02/04 12:12:49;;;;;;;5.82;3.42;;;;;;;;;;5012714;28;20030;-69
2022/02/04 12:15:30;;;;;;;7.30;4.20;;;;;;;;;;5013781;28;20037;-73
2022/02/04 12:17:56;;;;;;;;;;;;;;;;;;5015592;28;20030;-69
2022/02/04 12:20:41;;;;;;;19.65;10.82;;;;;;;;;;5014521;28;20329;-73
2022/02/04 12:23:07;;;;;;;45.20;23.55;;;;;;;;;;5014622;28;20033;-72
2022/02/04 12:25:52;;;;;;;62.88;32.75;;;;;;;;;;5014581;28;20030;-73
2022/02/04 12:28:37;;;;;;;36.42;17.60;;;;;;;;;;5013520;28;20029;-73
2022/02/04 12:31:07;;;;;;;36.83;18.90;;;;;;;;;;5027607;28;20029;-73
2022/02/04 12:33:39;;;;;;;37.33;20.15;;;;;;;;;;5012511;28;20022;-71
2022/02/04 12:36:05;;;;;;;6.82;3.42;;;;;;;;;;5028880;28;20480;-73
2022/02/04 12:38:31;;;;;;;6.13;3.00;;;;;;;;;;5013404;28;20037;-73
2022/02/04 12:40:58;;;;;;;20.75;10.18;;;;;;;;;;5013960;28;20041;-73
2022/02/04 12:43:26;;;;;;;12.57;7.20;;;;;;;;;;5013797;28;20103;-71
2022/02/04 12:45:52;;;;;;;25.45;12.70;;;;;;;;;;5014315;28;20029;-72
2022/02/04 12:48:19;;;;;;;9.70;5.53;;;;;;;;;;5013902;28;20116;-72
2022/02/04 12:50:55;;;;;;;27.67;13.65;;;;;;;;;;5013318;28;20033;-71
2022/02/04 12:53:29;;;;;;;92.93;42.42;;;;;;;;;;5012490;28;20185;-73
2022/02/04 12:56:18;;;;;;;40.08;18.25;;;;;;;;;;5013071;28;20480;-72
2022/02/04 13:09:56;;;;;;;12.52;4.90;;;;;;;;;;5012984;28;20084;-72
2022/02/04 13:12:22;;;;;;;17.25;9.20;;;;;;;;;;5012370;28;20484;-71
2022/02/04 13:14:49;;;;;;;13.00;5.72;;;;;;;;;;5012034;28;20025;-70
2022/02/04 13:17:36;;;;;;;16.48;7.22;;;;;;;;;;5012630;28;20022;-71
2022/02/04 13:20:02;;;;;;;6.80;3.17;;;;;;;;;;5012454;28;20423;-71
2022/02/04 13:22:29;;;;;;;4.78;2.72;;;;;;;;;;5035499;23;20499;-75
2022/02/04 13:25:04;;;;;;;40.80;20.02;;;;;;;;;;5012420;28;20021;-74
2022/02/04 13:27:30;;;;;;;30.65;14.73;;;;;;;;;;5012457;28;20022;-73
2022/02/04 13:29:56;;;;;;;27.05;13.15;;;;;;;;;;5012659;28;20030;-74
2022/02/04 13:32:26;;;;;;;37.03;17.35;;;;;;;;;;5012350;28;20087;-74
2022/02/04 13:34:53;;;;;;;66.57;33.25;;;;;;;;;;5011802;28;20029;-73
2022/02/04 13:37:26;;;;;;;32.33;15.80;;;;;;;;;;5012118;28;20034;-73
2022/02/04 13:40:19;;;;;;;22.95;10.95;;;;;;;;;;5012384;28;20018;-75
2022/02/04 13:42:44;;;;;;;26.33;13.00;;;;;;;;;;5011629;28;20533;-76
2022/02/04 13:45:26;;;;;;;22.00;10.05;;;;;;;;;;5013293;28;20115;-74
2022/02/04 13:48:11;;;;;;;18.63;8.48;;;;;;;;;;5011705;28;20082;-76
2022/02/04 13:50:51;;;;;;;31.33;13.05;;;;;;;;;;5012839;28;20038;-76
2022/02/04 13:56:28;;;;;;;12.48;5.78;;;;;;;;;;5012897;28;20033;-75
2022/02/04 13:59:11;;;;;;;31.45;13.50;;;;;;;;;;5011984;28;20018;-73
2022/02/04 14:01:46;;;;;;;32.53;15.50;;;;;;;;;;5012398;28;20100;-74
2022/02/04 14:04:12;;;;;;;23.35;11.15;;;;;;;;;;5010983;28;20034;-74
2022/02/04 14:06:38;;;;;;;49.08;23.27;;;;;;;;;;5013148;28;20034;-74
2022/02/04 14:09:21;;;;;;;33.70;15.00;;;;;;;;;;5010962;28;20026;-74
2022/02/04 14:11:47;;;;;;;24.40;11.65;;;;;;;;;;5013009;28;20022;-74
2022/02/04 14:14:20;;;;;;;19.90;9.63;;;;;;;;;;5009945;28;20029;-74
2022/02/04 14:16:53;;;;;;;4.70;2.55;;;;;;;;;;5012381;28;20105;-74
2022/02/04 14:19:21;;;;;;;36.20;16.95;;;;;;;;;;5012354;28;20037;-74
2022/02/04 14:21:47;;;;;;;36.05;15.82;;;;;;;;;;5010490;28;20041;-75
2022/02/04 14:24:14;;;;;;;47.05;22.50;;;;;;;;;;5011523;28;20018;-74
2022/02/04 14:26:45;;;;;;;88.65;40.67;;;;;;;;;;5011101;28;20026;-74
2022/02/04 14:29:34;;;;;;;29.23;13.90;;;;;;;;;;5012333;28;20434;-76
2022/02/04 14:32:08;;;;;;;30.70;14.98;;;;;;;;;;5011851;28;20030;-75
2022/02/04 14:53:48;;;;;;;23.45;11.05;;;;;;;;;;5011152;28;20072;-74
2022/02/04 14:59:34;;;;;;;12.45;5.78;;;;;;;;;;5015857;28;20036;-74
2022/02/04 15:01:54;;;;;;;67.43;30.80;;;;;;;;;;5015643;28;20057;-76
2022/02/04 15:04:45;;;;;;;52.10;24.65;;;;;;;;;;5014936;28;20034;-73
2022/02/04 15:07:12;;;;;;;29.40;14.50;;;;;;;;;;5015631;28;20037;-75
2022/02/04 15:09:43;;;;;;;25.17;10.65;;;;;;;;;;5014384;28;20088;-75
2022/02/04 15:12:09;;;;;;;;;;;;;;;;;;5016866;28;20030;-73
2022/02/04 15:14:35;;;;;;;45.88;20.15;;;;;;;;;;5014813;28;20036;-74
2022/02/04 15:17:01;;;;;;;49.63;23.02;;;;;;;;;;5013688;28;20025;-71
2022/02/04 15:19:32;;;;;;;27.48;12.80;;;;;;;;;;5015344;28;20484;-70
2022/02/04 15:22:00;;;;;;;16.88;8.48;;;;;;;;;;5014956;28;20385;-70
2022/02/04 15:24:26;;;;;;;26.50;13.13;;;;;;;;;;5014600;28;20057;-73
2022/02/04 15:26:52;;;;;;;6.68;3.55;;;;;;;;;;5014648;28;20113;-72
2022/02/04 15:29:19;;;;;;;4.28;2.35;;;;;;;;;;5014888;28;20061;-71
2022/02/04 15:31:53;;;;;;;17.85;8.77;;;;;;;;;;5014792;28;20034;-72
2022/02/04 15:34:20;;;;;;;13.95;6.60;;;;;;;;;;5014389;28;20526;-73
2022/02/04 15:36:48;;;;;;;15.15;7.88;;;;;;;;;;5014884;28;20033;-73
2022/02/04 15:39:17;;;;;;;15.43;7.85;;;;;;;;;;5014642;28;20022;-73
2022/02/04 15:41:44;;;;;;;8.70;4.75;;;;;;;;;;5014403;28;20030;-73
2022/02/04 15:45:01;;;;;;;51.72;22.98;;;;;;;;;;5013946;28;20491;-73
2022/02/04 15:48:11;;;;;;;3.85;2.15;;;;;;;;;;5006804;28;20038;-72
2022/02/04 15:52:57;;;;;;;19.48;8.30;;;;;;;;;;5013320;28;20076;-73
2022/02/04 15:55:45;;;;;;;3.45;2.10;;;;;;;;;;5006682;28;20113;-74
2022/02/04 15:58:21;;;;;;;5.63;3.20;;;;;;;;;;5012803;28;20038;-74
2022/02/04 16:01:01;;;;;;;5.60;2.92;;;;;;;;;;5014276;28;20100;-73
2022/02/04 16:03:40;;;;;;;14.02;7.22;;;;;;;;;;5012013;28;20030;-73
2022/02/04 16:06:09;;;;;;;25.33;11.73;;;;;;;;;;5014372;28;20033;-73
2022/02/04 16:08:35;;;;;;;4.50;2.70;;;;;;;;;;5014361;28;20483;-72
2022/02/04 16:11:15;;;;;;;4.25;2.25;;;;;;;;;;5014178;28;20045;-73
2022/02/04 16:13:51;;;;;;;17.27;7.93;;;;;;;;;;5014127;28;20260;-73
2022/02/04 16:19:01;;;;;;;1.83;1.30;;;;;;;;;;5014228;28;20058;-72
2022/02/04 16:21:39;;;;;;;6.57;3.38;;;;;;;;;;5013571;28;20030;-72
2022/02/04 16:29:38;;;;;;;96.35;49.80;;;;;;;;;;5011141;28;20048;-73
2022/02/04 16:32:04;;;;;;;200.33;107.93;;;;;;;;;;5012326;28;20045;-72
2022/02/04 16:34:30;;;;;;;54.03;29.00;;;;;;;;;;5012745;28;20097;-72
2022/02/04 16:37:01;;;;;;;24.30;13.50;;;;;;;;;;5013614;28;20383;-73
2022/02/04 16:39:27;;;;;;;23.15;11.07;;;;;;;;;;5013658;28;20024;-73
2022/02/04 16:42:04;;;;;;;14.48;7.50;;;;;;;;;;5013171;28;20484;-73
2022/02/04 16:44:31;;;;;;;17.65;7.80;;;;;;;;;;5012813;28;20026;-73
2022/02/04 16:46:58;;;;;;;23.63;11.73;;;;;;;;;;5013181;28;20099;-72
2022/02/04 16:49:24;;;;;;;5.80;3.47;;;;;;;;;;5013215;28;20026;-75
2022/02/04 16:51:50;;;;;;;6.47;3.58;;;;;;;;;;5013808;28;20543;-77
2022/02/04 16:54:18;;;;;;;14.68;7.05;;;;;;;;;;5011176;28;20030;-75
2022/02/04 16:56:44;;;;;;;29.02;13.98;;;;;;;;;;5009582;28;20014;-76
2022/02/04 16:59:10;;;;;;;23.60;11.00;;;;;;;;;;5011511;28;20227;-75
2022/02/04 17:01:36;;;;;;;25.35;14.85;;;;;;;;;;5011403;28;20538;-75
2022/02/04 17:04:04;;;;;;;91.97;46.28;;;;;;;;;;5012662;28;20455;-77
2022/02/04 17:06:36;;;;;;;47.05;24.20;;;;;;;;;;5012503;28;20403;-77
2022/02/04 17:11:43;;;;;;;19.83;9.07;;;;;;;;;;5015434;28;20053;-74
2022/02/04 17:14:10;;;;;;;29.35;14.27;;;;;;;;;;5019613;28;20112;-77
2022/02/04 17:16:41;;;;;;;6.20;2.92;;;;;;;;;;5016667;28;20026;-75
2022/02/04 17:19:08;;;;;;;;;;;;;;;;;;5016473;28;20396;-75
2022/02/04 17:21:35;;;;;;;60.70;29.33;;;;;;;;;;5014819;28;19913;-76
2022/02/04 17:24:01;;;;;;;54.33;24.92;;;;;;;;;;5025632;28;20033;-71
2022/02/04 17:26:27;;;;;;;21.75;10.90;;;;;;;;;;5017406;28;20376;-73
2022/02/04 17:28:54;;;;;;;29.38;14.32;;;;;;;;;;5029610;28;20037;-73
2022/02/04 17:31:21;;;;;;;7.88;4.53;;;;;;;;;;5021035;28;20033;-72
2022/02/04 17:33:47;;;;;;;14.43;7.50;;;;;;;;;;5022206;28;20014;-73
2022/02/04 17:36:13;;;;;;;39.22;19.67;;;;;;;;;;5027031;28;20057;-74
2022/02/04 17:38:42;;;;;;;15.00;8.00;;;;;;;;;;5016356;28;20064;-74
2022/02/04 17:41:09;;;;;;;3.65;2.70;;;;;;;;;;5028348;28;20021;-73
2022/02/04 17:43:35;;;;;;;19.48;9.60;;;;;;;;;;5026269;28;20084;-73
2022/02/04 17:46:01;;;;;;;14.25;6.50;;;;;;;;;;5026855;28;20077;-73
2022/02/04 17:48:40;;;;;;;12.38;5.13;;;;;;;;;;5034562;28;20115;-72
2022/02/04 17:51:22;;;;;;;15.32;7.90;;;;;;;;;;5008152;28;20060;-73
2022/02/04 17:53:55;;;;;;;26.88;12.10;;;;;;;;;;5027365;28;20026;-73
2022/02/04 17:56:32;;;;;;;22.95;11.43;;;;;;;;;;5029533;28;20109;-73
2022/02/04 18:01:39;;;;;;;2.80;1.33;;;;;;;;;;5026847;28;20392;-73
2022/02/04 18:07:08;;;;;;;10.10;5.22;;;;;;;;;;5016805;28;20036;-72
2022/02/04 18:09:34;;;;;;;9.95;5.30;;;;;;;;;;5023949;28;20072;-73
2022/02/04 18:12:01;;;;;;;20.02;10.10;;;;;;;;;;5024519;28;20030;-73
2022/02/04 18:14:27;;;;;;;30.85;16.00;;;;;;;;;;5016026;28;20072;-73
2022/02/04 18:16:53;;;;;;;20.40;9.63;;;;;;;;;;5030044;28;20125;-73
2022/02/04 18:19:19;;;;;;;14.20;6.57;;;;;;;;;;5021182;28;20487;-73
2022/02/04 18:21:45;;;;;;;11.55;6.13;;;;;;;;;;5024405;28;20455;-75
2022/02/04 18:24:11;;;;;;;17.88;9.70;;;;;;;;;;5027023;28;20055;-73
2022/02/04 18:26:37;;;;;;;8.63;5.07;;;;;;;;;;5017375;28;20029;-73
2022/02/04 18:29:04;;;;;;;21.58;10.75;;;;;;;;;;5032835;28;20072;-74
2022/02/04 18:31:32;;;;;;;8.63;4.38;;;;;;;;;;5024786;28;20021;-73
2022/02/04 18:33:58;;;;;;;11.15;5.43;;;;;;;;;;5025342;28;20021;-74
2022/02/04 18:36:24;;;;;;;11.68;5.97;;;;;;;;;;5034117;28;20075;-73
2022/02/04 18:38:55;;;;;;;16.60;8.38;;;;;;;;;;5021604;28;20026;-75
2022/02/04 18:44:05;;;;;;;17.70;11.35;;;;;;;;;;5028829;28;20040;-74
2022/02/04 18:49:02;;;;;;;11.45;5.93;;;;;;;;;;5033319;28;20400;-75
2022/02/04 18:59:13;;;;;;;40.88;22.38;;;;;;;;;;5023682;28;20267;-76
2022/02/04 19:01:39;;;;;;;26.00;14.50;;;;;;;;;;5022055;28;20057;-77
2022/02/04 19:04:11;;;;;;;29.20;15.02;;;;;;;;;;5035788;28;20031;-77
2022/02/04 19:06:42;;;;;;;30.20;14.68;;;;;;;;;;5049298;28;20085;-77
2022/02/04 19:09:09;;;;;;;6.40;4.43;;;;;;;;;;5030288;28;20021;-72
2022/02/04 19:11:46;;;;;;;6.28;3.35;;;;;;;;;;5034115;28;20022;-73
2022/02/04 19:14:29;;;;;;;16.42;8.55;;;;;;;;;;5011208;28;20058;-76
2022/02/04 19:18:00;;;;;;;18.27;8.45;;;;;;;;;;5036977;28;20018;-76
2022/02/04 19:19:58;;;;;;;15.82;8.45;;;;;;;;;;5020513;28;20120;-75
2022/02/04 19:24:59;;;;;;;5.30;2.72;;;;;;;;;;5029325;28;20048;-71
2022/02/04 19:27:25;;;;;;;3.55;2.13;;;;;;;;;;5013335;28;20041;-72
2022/02/04 19:29:51;;;;;;;10.25;5.18;;;;;;;;;;5022914;28;20391;-68
2022/02/04 19:32:18;;;;;;;13.10;6.50;;;;;;;;;;5018627;28;20029;-69
2022/02/04 19:34:44;;;;;;;25.65;11.65;;;;;;;;;;5029192;28;20022;-69
2022/02/04 19:37:10;;;;;;;25.83;12.48;;;;;;;;;;5018570;28;20537;-72
2022/02/04 19:39:38;;;;;;;17.55;8.50;;;;;;;;;;5023467;28;20113;-71
2022/02/04 19:42:18;;;;;;;;;;;;;;;;;;;;;
2022/02/04 19:44:31;;;;;;;9.43;5.18;;;;;;;;;;5030746;28;20037;-72
2022/02/04 19:47:02;;;;;;;5.88;2.97;;;;;;;;;;4998815;28;20029;-72
2022/02/04 19:49:39;;;;;;;5.65;2.92;;;;;;;;;;5026023;28;20091;-70
2022/02/04 19:52:17;;;;;;;4.32;2.53;;;;;;;;;;5025813;28;20025;-71
2022/02/04 20:24:53;;;;;;;102.60;36.25;;;;;;;;;;5028949;28;20095;-72
2022/02/04 20:27:19;;;;;;;73.47;27.65;;;;;;;;;;5017297;28;20407;-72
2022/02/04 20:29:45;;;;;;;52.83;20.40;;;;;;;;;;5021711;28;20034;-71
2022/02/04 20:32:12;;;;;;;48.35;18.17;;;;;;;;;;5025060;28;20026;-71
2022/02/04 20:34:38;;;;;;;14.52;7.05;;;;;;;;;;5014131;28;20121;-72
2022/02/04 20:37:04;;;;;;;9.40;4.05;;;;;;;;;;5028425;28;20108;-72
2022/02/04 20:39:43;;;;;;;6.35;2.88;;;;;;;;;;5019739;28;20099;-72
2022/02/04 20:42:10;;;;;;;3.85;1.95;;;;;;;;;;5019183;28;20024;-72
2022/02/04 20:44:36;;;;;;;22.45;10.88;;;;;;;;;;5028554;28;20049;-72
2022/02/04 20:47:02;;;;;;;19.05;7.95;;;;;;;;;;5015727;28;20100;-72
2022/02/04 20:49:28;;;;;;;9.68;4.57;;;;;;;;;;5024852;28;20124;-71
2022/02/04 20:51:54;;;;;;;13.15;6.07;;;;;;;;;;5023288;28;20095;-72
2022/02/04 20:54:20;;;;;;;13.10;5.90;;;;;;;;;;5017086;28;20029;-73
2022/02/04 20:56:46;;;;;;;23.17;11.05;;;;;;;;;;5028846;28;20032;-72
2022/02/04 20:59:12;;;;;;;15.18;6.60;;;;;;;;;;5018329;28;20026;-72
2022/02/04 21:01:38;;;;;;;13.13;6.57;;;;;;;;;;5022964;28;20100;-71
2022/02/04 21:04:08;;;;;;;22.23;10.63;;;;;;;;;;5024523;28;20117;-69
2022/02/04 21:15:21;;;;;;;10.98;4.50;;;;;;;;;;5011416;28;20036;-70
2022/02/04 21:17:48;;;;;;;12.05;5.20;;;;;;;;;;5015808;28;20108;-71
2022/02/04 21:20:16;;;;;;;20.98;9.10;;;;;;;;;;5026096;28;20368;-71
2022/02/04 21:22:42;;;;;;;20.50;9.15;;;;;;;;;;5014739;28;20046;-70
2022/02/04 21:25:09;;;;;;;17.83;6.78;;;;;;;;;;5025161;28;20065;-72
2022/02/04 21:27:37;;;;;;;11.52;5.88;;;;;;;;;;5020854;28;20049;-72
2022/02/04 21:30:07;;;;;;;17.80;7.70;;;;;;;;;;5019098;28;20480;-72
2022/02/04 21:32:37;;;;;;;10.00;4.72;;;;;;;;;;5028404;28;20380;-74
2022/02/04 21:37:48;;;;;;;15.02;6.80;;;;;;;;;;5021429;28;20471;-75
2022/02/04 21:40:14;;;;;;;6.05;2.47;;;;;;;;;;5025032;28;20228;-75
2022/02/04 21:42:40;;;;;;;8.65;3.40;;;;;;;;;;5014778;28;20025;-72
2022/02/04 21:45:06;;;;;;;17.33;7.55;;;;;;;;;;5026555;28;20028;-72
2022/02/04 21:47:45;;;;;;;84.47;37.35;;;;;;;;;;5014653;28;20029;-72
2022/02/04 21:50:11;;;;;;;131.15;54.20;;;;;;;;;;5025547;28;20296;-74